Time;durP1;ratioP1;P1;durP2;ratioP2;P2;SDS_P1;SDS_P2;PMS_P1;PMS_P2;Temp;Humidity;BMP_temperature;BMP_pressure;BME280_temperature;BME280_humidity;BME280_pressure;Samples;Min_cycle;Max_cycle;Signal;HPM_P1;HPM_P2
2021/09/01 00:00:11;;;;;;;17.30;6.88;;;15.00;98.10;;;;;;4935809;28;20024;-83
2021/09/01 00:02:37;;;;;;;13.98;6.22;;;15.00;98.10;;;;;;4944434;28;20118;-82
2021/09/01 00:05:03;;;;;;;18.88;6.50;;;15.10;98.20;;;;;;4940500;28;20031;-82
2021/09/01 00:07:29;;;;;;;15.20;6.93;;;15.10;98.00;;;;;;4951226;28;20059;-81
2021/09/01 00:09:54;;;;;;;21.65;7.13;;;15.10;98.30;;;;;;4949286;28;20499;-82
2021/09/01 00:12:20;;;;;;;15.57;6.90;;;15.10;98.00;;;;;;4944510;28;20064;-82
2021/09/01 00:14:45;;;;;;;19.27;7.22;;;15.10;98.30;;;;;;4935517;28;20035;-82
2021/09/01 00:17:11;;;;;;;29.63;6.75;;;15.10;98.20;;;;;;4936065;28;20035;-82
2021/09/01 00:19:36;;;;;;;20.42;6.95;;;15.10;98.40;;;;;;4930579;28;20121;-82
2021/09/01 00:22:02;;;;;;;8.32;4.28;;;15.10;98.50;;;;;;4917687;28;20555;-81
2021/09/01 00:24:28;;;;;;;16.95;6.60;;;15.20;97.70;;;;;;4939652;28;20031;-81
2021/09/01 00:26:53;;;;;;;11.25;5.10;;;15.20;97.70;;;;;;4936511;29;20035;-82
2021/09/01 00:29:19;;;;;;;14.45;6.22;;;15.20;97.50;;;;;;4917232;29;20369;-81
2021/09/01 00:31:44;;;;;;;19.23;7.05;;;15.20;97.60;;;;;;4944149;28;20117;-81
2021/09/01 00:34:10;;;;;;;14.90;7.68;;;15.10;98.20;;;;;;4918596;28;20046;-82
2021/09/01 00:36:35;;;;;;;19.42;7.45;;;15.10;98.00;;;;;;4937492;28;20047;-83
2021/09/01 00:39:01;;;;;;;16.90;7.47;;;15.10;97.80;;;;;;4935234;28;20127;-81
2021/09/01 00:41:27;;;;;;;17.88;7.53;;;15.10;98.30;;;;;;4941496;29;20035;-81
2021/09/01 00:43:54;;;;;;;20.17;7.10;;;15.10;98.20;;;;;;4919007;29;20391;-81
2021/09/01 00:46:20;;;;;;;20.33;7.47;;;15.10;98.10;;;;;;4948857;28;20027;-82
2021/09/01 00:48:46;;;;;;;16.27;7.25;;;15.10;97.90;;;;;;4953530;28;20050;-82
2021/09/01 00:51:11;;;;;;;18.38;8.13;;;15.10;98.20;;;;;;4950629;28;20045;-81
2021/09/01 00:53:43;;;;;;;16.80;7.18;;;15.10;98.40;;;;;;4952330;28;20039;-81
2021/09/01 00:56:13;;;;;;;17.40;8.05;;;15.10;98.20;;;;;;4934737;28;20068;-81
2021/09/01 00:58:39;;;;;;;13.40;6.68;;;15.10;98.40;;;;;;4933799;28;20039;-82
2021/09/01 01:03:33;;;;;;;15.60;7.50;;;15.10;98.30;;;;;;4947270;28;20499;-81
2021/09/01 01:06:00;;;;;;;16.45;8.13;;;15.10;98.50;;;;;;4948712;28;20034;-82
2021/09/01 01:08:28;;;;;;;19.60;7.60;;;15.10;97.80;;;;;;4951352;28;20078;-82
2021/09/01 01:10:59;;;;;;;21.05;7.28;;;15.10;97.90;;;;;;4931941;28;20026;-82
2021/09/01 01:13:28;;;;;;;19.58;7.97;;;15.10;98.10;;;;;;4962936;28;20421;-83
2021/09/01 01:15:54;;;;;;;17.05;7.40;;;15.20;97.90;;;;;;4939015;28;20038;-81
2021/09/01 01:18:20;;;;;;;15.57;7.15;;;15.10;98.00;;;;;;4924015;28;20027;-81
2021/09/01 01:20:48;;;;;;;14.07;6.47;;;15.10;98.30;;;;;;4931856;28;20554;-81
2021/09/01 01:23:16;;;;;;;17.42;7.28;;;15.10;98.10;;;;;;4934562;28;20119;-81
2021/09/01 01:25:41;;;;;;;21.35;7.55;;;15.10;98.40;;;;;;4941605;28;20037;-81
2021/09/01 01:28:07;;;;;;;17.02;7.30;;;15.10;98.20;;;;;;4915886;28;20032;-81
2021/09/01 01:30:33;;;;;;;19.60;7.45;;;15.20;98.70;;;;;;4951421;28;20114;-82
2021/09/01 01:32:58;;;;;;;13.00;6.55;;;15.20;99.10;;;;;;4960564;28;20134;-82
2021/09/01 01:35:46;;;;;;;14.05;6.43;;;15.10;98.30;;;;;;4969944;28;20077;-81
2021/09/01 01:38:15;;;;;;;15.30;6.50;;;15.10;98.40;;;;;;4935254;28;20043;-81
2021/09/01 01:40:41;;;;;;;20.77;6.63;;;15.10;98.40;;;;;;4934632;28;20062;-81
2021/09/01 01:43:09;;;;;;;18.15;7.10;;;15.10;97.80;;;;;;4934921;28;20736;-82
2021/09/01 01:45:39;;;;;;;20.95;8.18;;;15.10;97.90;;;;;;4950711;28;20082;-83
2021/09/01 01:48:05;;;;;;;18.88;7.47;;;15.10;98.00;;;;;;4918356;28;20048;-81
2021/09/01 01:50:31;;;;;;;16.20;7.65;;;15.00;98.20;;;;;;4954570;28;20038;-82
2021/09/01 01:52:56;;;;;;;19.85;8.35;;;15.10;98.10;;;;;;4950325;29;20035;-81
2021/09/01 01:55:22;;;;;;;17.83;7.22;;;15.10;98.40;;;;;;4931603;28;20036;-81
2021/09/01 01:57:47;;;;;;;10.80;7.65;;;15.10;98.60;;;;;;4917795;28;20024;-82
2021/09/01 02:00:13;;;;;;;16.05;6.85;;;15.10;98.30;;;;;;4934592;28;20082;-81
2021/09/01 02:02:39;;;;;;;16.35;8.10;;;15.10;98.90;;;;;;4934053;28;20118;-81
2021/09/01 02:05:05;;;;;;;12.48;7.05;;;15.00;98.50;;;;;;4930298;28;20509;-82
2021/09/01 02:07:32;;;;;;;19.27;7.75;;;15.00;98.60;;;;;;4965944;28;20067;-82
2021/09/01 02:09:58;;;;;;;15.95;6.32;;;15.00;98.30;;;;;;4951352;28;20035;-81
2021/09/01 02:12:24;;;;;;;17.83;6.43;;;15.00;98.70;;;;;;4949576;28;20039;-82
2021/09/01 02:14:50;;;;;;;17.90;7.10;;;15.00;98.10;;;;;;4917790;28;20384;-82
2021/09/01 02:17:15;;;;;;;9.15;6.00;;;15.10;98.10;;;;;;4933906;28;20035;-82
2021/09/01 02:19:41;;;;;;;12.63;6.18;;;15.00;98.20;;;;;;4916213;28;20035;-82
2021/09/01 02:22:06;;;;;;;17.60;7.43;;;15.00;98.10;;;;;;4915729;29;20036;-81
2021/09/01 02:24:32;;;;;;;13.27;6.40;;;15.10;98.40;;;;;;4958946;28;20042;-83
2021/09/01 02:26:57;;;;;;;17.95;6.95;;;15.10;98.20;;;;;;4932482;29;20082;-82
2021/09/01 02:29:23;;;;;;;21.30;6.65;;;15.10;98.70;;;;;;4954358;28;20087;-86
2021/09/01 02:31:49;;;;;;;13.68;6.07;;;15.00;98.30;;;;;;4940458;28;20031;-86
2021/09/01 02:34:14;;;;;;;17.27;7.03;;;15.10;98.30;;;;;;4931981;28;20034;-86
2021/09/01 02:36:40;;;;;;;12.93;6.00;;;15.10;98.10;;;;;;4956694;28;20042;-86
2021/09/01 02:39:05;;;;;;;12.40;6.00;;;15.10;98.30;;;;;;4918402;28;20106;-86
2021/09/01 02:41:31;;;;;;;14.65;6.38;;;15.00;98.00;;;;;;4970872;28;20050;-85
2021/09/01 02:43:56;;;;;;;17.88;6.57;;;15.00;97.90;;;;;;4945013;28;20387;-86
2021/09/01 02:46:22;;;;;;;13.90;6.95;;;15.00;97.80;;;;;;4953110;28;20819;-86
2021/09/01 02:48:48;;;;;;;16.27;6.13;;;15.00;98.00;;;;;;4949647;28;20451;-86
2021/09/01 02:51:14;;;;;;;16.70;7.10;;;15.00;98.00;;;;;;4929901;28;20032;-86
2021/09/01 02:53:40;;;;;;;13.65;7.07;;;15.00;97.90;;;;;;4965020;28;20035;-86
2021/09/01 02:56:05;;;;;;;18.17;7.35;;;15.00;97.90;;;;;;4936795;28;20035;-83
2021/09/01 02:58:31;;;;;;;10.18;5.97;;;15.00;97.80;;;;;;4938419;29;20491;-83
2021/09/01 03:00:56;;;;;;;16.13;6.95;;;15.00;98.00;;;;;;4921231;29;20042;-82
2021/09/01 03:03:22;;;;;;;13.05;6.63;;;15.00;97.60;;;;;;4952247;28;20031;-82
2021/09/01 03:05:47;;;;;;;16.77;7.22;;;14.90;97.70;;;;;;4970177;28;20043;-82
2021/09/01 03:08:13;;;;;;;15.77;7.45;;;14.90;98.10;;;;;;4933472;28;20035;-82
2021/09/01 03:10:38;;;;;;;22.70;7.38;;;15.00;98.20;;;;;;4948858;28;20036;-83
2021/09/01 03:13:04;;;;;;;18.40;7.60;;;15.00;98.20;;;;;;4916665;28;20146;-82
2021/09/01 03:15:30;;;;;;;13.93;8.07;;;14.90;98.70;;;;;;4933381;29;20023;-83
2021/09/01 03:17:55;;;;;;;18.05;7.28;;;14.90;98.10;;;;;;4934137;28;20047;-82
2021/09/01 03:20:21;;;;;;;16.42;8.43;;;14.90;98.10;;;;;;4923683;28;20541;-82
2021/09/01 03:22:46;;;;;;;16.38;7.75;;;14.90;98.30;;;;;;4959424;28;20039;-82
2021/09/01 03:25:12;;;;;;;12.88;6.88;;;14.90;98.20;;;;;;4919088;28;20023;-82
2021/09/01 03:27:37;;;;;;;17.30;6.57;;;14.90;98.20;;;;;;4965084;28;20505;-82
2021/09/01 03:30:03;;;;;;;19.40;6.95;;;14.90;98.10;;;;;;4935162;29;20399;-81
2021/09/01 03:32:29;;;;;;;15.68;6.57;;;14.90;98.50;;;;;;4954538;28;20827;-81
2021/09/01 03:34:55;;;;;;;17.20;7.00;;;14.90;98.10;;;;;;4935809;29;20024;-82
2021/09/01 03:37:20;;;;;;;14.00;6.60;;;14.90;98.80;;;;;;4952593;28;20043;-81
2021/09/01 03:39:46;;;;;;;16.48;6.50;;;14.90;98.30;;;;;;4936178;28;20027;-81
2021/09/01 03:42:11;;;;;;;13.95;7.05;;;14.90;98.30;;;;;;4959229;28;20043;-82
2021/09/01 03:44:37;;;;;;;10.88;5.25;;;14.90;99.00;;;;;;4959244;28;20035;-82
2021/09/01 03:47:02;;;;;;;13.70;6.70;;;14.90;98.30;;;;;;4919878;29;20031;-82
2021/09/01 03:49:28;;;;;;;7.55;4.20;;;15.00;98.50;;;;;;4947423;29;20037;-82
2021/09/01 03:51:53;;;;;;;12.13;4.95;;;14.90;97.90;;;;;;4966644;28;20784;-83
2021/09/01 03:54:19;;;;;;;16.48;6.50;;;15.00;98.30;;;;;;4936193;28;20514;-82
2021/09/01 03:56:44;;;;;;;15.73;7.65;;;14.90;97.90;;;;;;4949340;28;20039;-81
2021/09/01 03:59:10;;;;;;;18.38;6.75;;;14.90;99.00;;;;;;4936672;28;20071;-81
2021/09/01 04:01:36;;;;;;;18.67;7.05;;;14.90;98.40;;;;;;4927454;28;20033;-82
2021/09/01 04:04:02;;;;;;;14.90;7.15;;;14.90;98.40;;;;;;4916694;29;20456;-81
2021/09/01 04:06:28;;;;;;;13.57;6.38;;;14.90;98.40;;;;;;4952024;28;20082;-82
2021/09/01 04:08:53;;;;;;;15.15;7.32;;;14.90;97.80;;;;;;4956461;28;20028;-81
2021/09/01 04:11:19;;;;;;;10.35;5.03;;;14.90;98.10;;;;;;4918859;28;20494;-82
2021/09/01 04:13:44;;;;;;;19.95;7.68;;;14.80;97.90;;;;;;4951440;28;20028;-82
2021/09/01 04:16:10;;;;;;;16.35;6.10;;;14.90;98.00;;;;;;4918518;28;20419;-82
2021/09/01 04:18:35;;;;;;;11.05;5.82;;;14.90;98.10;;;;;;4938240;28;20479;-83
2021/09/01 04:21:01;;;;;;;13.07;5.95;;;14.80;97.80;;;;;;4935651;29;20590;-82
2021/09/01 04:23:27;;;;;;;16.02;6.63;;;14.90;97.80;;;;;;4951097;28;20031;-82
2021/09/01 04:25:53;;;;;;;13.52;6.00;;;14.80;98.10;;;;;;4933777;28;20767;-82
2021/09/01 04:28:18;;;;;;;16.38;6.25;;;14.80;97.80;;;;;;4942741;28;20168;-82
2021/09/01 04:30:44;;;;;;;17.08;6.10;;;14.80;97.90;;;;;;4950823;28;20118;-81
2021/09/01 04:33:09;;;;;;;15.23;6.07;;;14.80;97.80;;;;;;4917058;29;20032;-82
2021/09/01 04:35:35;;;;;;;11.77;5.82;;;14.80;97.80;;;;;;4948316;28;20037;-81
2021/09/01 04:38:01;;;;;;;15.73;5.15;;;14.80;97.80;;;;;;4951112;28;20111;-82
2021/09/01 04:40:26;;;;;;;12.57;5.72;;;14.80;98.10;;;;;;4951742;28;20110;-81
2021/09/01 04:42:52;;;;;;;22.08;6.88;;;14.80;97.90;;;;;;4950409;28;20376;-81
2021/09/01 04:45:18;;;;;;;16.67;7.10;;;14.80;97.30;;;;;;4934561;28;20054;-82
2021/09/01 04:47:43;;;;;;;11.15;5.28;;;14.80;97.20;;;;;;4939825;28;20152;-82
2021/09/01 04:50:09;;;;;;;15.90;6.30;;;14.80;97.10;;;;;;4933915;29;20085;-82
2021/09/01 04:52:35;;;;;;;8.80;4.18;;;14.80;97.40;;;;;;4951168;28;20035;-81
2021/09/01 04:55:00;;;;;;;12.88;6.60;;;14.80;97.50;;;;;;4950813;28;20039;-82
2021/09/01 04:57:26;;;;;;;14.90;7.45;;;14.80;97.40;;;;;;4948315;28;20079;-81
2021/09/01 04:59:52;;;;;;;19.65;6.57;;;14.80;97.50;;;;;;4941163;28;20024;-81
2021/09/01 05:02:17;;;;;;;14.50;7.55;;;14.80;98.00;;;;;;4914866;28;20114;-81
2021/09/01 05:04:43;;;;;;;7.38;4.68;;;14.80;97.50;;;;;;4949405;28;20121;-81
2021/09/01 05:07:09;;;;;;;17.38;7.05;;;14.80;97.80;;;;;;4934829;29;20035;-82
2021/09/01 05:09:34;;;;;;;11.93;5.47;;;14.80;97.60;;;;;;4952522;28;20027;-82
2021/09/01 05:12:00;;;;;;;16.33;7.28;;;14.80;98.00;;;;;;4933672;28;20094;-82
2021/09/01 05:14:25;;;;;;;13.98;6.90;;;14.90;98.10;;;;;;4934696;28;20126;-82
2021/09/01 05:16:51;;;;;;;14.45;6.53;;;14.80;98.00;;;;;;4937006;28;20058;-82
2021/09/01 05:19:16;;;;;;;8.90;4.85;;;14.80;98.10;;;;;;4923703;28;20031;-82
2021/09/01 05:21:50;;;;;;;8.75;4.70;;;14.80;97.40;;;;;;4952979;28;20038;-81
2021/09/01 05:24:37;;;;;;;9.82;5.95;;;14.80;96.70;;;;;;4937231;28;20106;-81
2021/09/01 05:27:11;;;;;;;9.40;4.70;;;14.90;96.30;;;;;;4948575;28;20046;-81
2021/09/01 05:29:42;;;;;;;8.65;4.57;;;14.90;97.50;;;;;;4953606;28;20114;-81
2021/09/01 05:32:12;;;;;;;8.95;5.38;;;14.90;97.40;;;;;;4940994;28;20122;-81
2021/09/01 05:34:38;;;;;;;6.70;4.35;;;14.90;97.60;;;;;;4955553;28;20039;-80
2021/09/01 05:37:03;;;;;;;8.02;4.88;;;14.90;97.40;;;;;;4930872;28;20474;-82
2021/09/01 05:39:29;;;;;;;10.40;5.05;;;14.90;96.90;;;;;;4952159;28;20055;-82
2021/09/01 05:41:55;;;;;;;8.75;5.00;;;15.00;96.50;;;;;;4950387;28;20035;-81
2021/09/01 05:44:20;;;;;;;11.18;4.55;;;15.00;97.30;;;;;;4932221;28;20043;-81
2021/09/01 05:46:47;;;;;;;10.57;4.95;;;14.90;96.90;;;;;;4950690;28;20039;-81
2021/09/01 05:49:13;;;;;;;7.93;3.95;;;15.10;96.20;;;;;;4919941;29;20027;-82
2021/09/01 05:51:40;;;;;;;11.55;5.78;;;15.00;95.90;;;;;;4935139;29;20031;-81
2021/09/01 05:54:06;;;;;;;6.93;4.10;;;15.10;96.00;;;;;;4919835;28;20450;-81
2021/09/01 05:56:34;;;;;;;9.30;4.85;;;15.10;96.30;;;;;;4960078;28;20039;-81
2021/09/01 05:59:01;;;;;;;5.88;4.32;;;15.10;96.80;;;;;;4939154;28;20090;-82
2021/09/01 06:01:28;;;;;;;12.07;4.72;;;15.10;96.80;;;;;;4918036;29;20102;-81
2021/09/01 06:03:57;;;;;;;12.15;7.18;;;15.10;96.00;;;;;;4949473;28;20038;-81
2021/09/01 06:06:23;;;;;;;15.10;7.53;;;15.10;96.20;;;;;;4932669;28;20525;-82
2021/09/01 06:08:48;;;;;;;12.02;6.68;;;15.10;97.50;;;;;;4938260;28;20031;-82
2021/09/01 06:11:14;;;;;;;17.98;6.75;;;15.10;97.30;;;;;;4934945;29;20042;-82
2021/09/01 06:13:40;;;;;;;16.88;7.47;;;15.10;97.50;;;;;;4933626;29;20105;-82
2021/09/01 06:16:05;;;;;;;15.85;6.43;;;15.10;97.50;;;;;;4934049;28;20031;-82
2021/09/01 06:18:31;;;;;;;15.05;6.63;;;15.20;97.90;;;;;;4949325;28;20046;-81
2021/09/01 06:20:56;;;;;;;10.32;6.43;;;15.20;97.70;;;;;;4949608;28;20105;-82
2021/09/01 06:23:22;;;;;;;12.82;6.30;;;15.20;97.80;;;;;;4944059;28;20031;-82
2021/09/01 06:25:47;;;;;;;18.42;6.50;;;15.30;97.50;;;;;;4948928;28;20399;-81
2021/09/01 06:28:14;;;;;;;16.15;7.40;;;15.30;97.70;;;;;;4920522;29;20138;-82
2021/09/01 06:30:39;;;;;;;18.35;7.38;;;15.40;97.60;;;;;;4932891;28;20031;-81
2021/09/01 06:33:07;;;;;;;12.65;6.15;;;15.40;97.20;;;;;;4933980;28;20045;-81
2021/09/01 06:35:32;;;;;;;14.20;5.53;;;15.40;97.10;;;;;;4950077;28;20513;-82
2021/09/01 06:37:58;;;;;;;15.05;6.45;;;15.40;97.30;;;;;;4918077;28;20024;-81
2021/09/01 06:40:24;;;;;;;12.38;6.18;;;15.50;97.40;;;;;;4934030;28;20032;-81
2021/09/01 06:43:00;;;;;;;19.13;6.97;;;15.50;97.30;;;;;;4949369;28;20110;-82
2021/09/01 06:45:37;;;;;;;16.95;6.53;;;15.50;97.00;;;;;;4569918;28;10000439;-82
2021/09/01 06:48:03;;;;;;;20.65;7.28;;;15.50;97.60;;;;;;4949888;28;20518;-82
2021/09/01 06:50:28;;;;;;;20.52;7.38;;;15.60;97.80;;;;;;4954671;28;20031;-82
2021/09/01 06:52:54;;;;;;;17.58;6.63;;;15.60;97.50;;;;;;4942487;28;20035;-81
2021/09/01 06:55:20;;;;;;;20.40;6.57;;;15.60;97.50;;;;;;4942572;28;20031;-81
2021/09/01 06:57:45;;;;;;;14.80;5.97;;;15.70;97.60;;;;;;4958172;28;20043;-82
2021/09/01 07:00:13;;;;;;;14.52;6.30;;;15.70;97.80;;;;;;4940944;28;20076;-82
2021/09/01 07:02:38;;;;;;;16.45;5.72;;;15.80;97.70;;;;;;4947111;28;20046;-82
2021/09/01 07:05:04;;;;;;;15.65;5.22;;;15.70;97.90;;;;;;4944098;28;20123;-82
2021/09/01 07:07:30;;;;;;;8.27;4.90;;;15.80;97.80;;;;;;4955889;28;20038;-82
2021/09/01 07:09:56;;;;;;;12.52;5.47;;;15.80;97.60;;;;;;4926546;28;20030;-82
2021/09/01 07:12:22;;;;;;;11.27;4.78;;;15.80;97.80;;;;;;4946539;28;20042;-81
2021/09/01 07:14:48;;;;;;;13.60;5.55;;;15.90;97.70;;;;;;4956617;28;20120;-82
2021/09/01 07:17:13;;;;;;;12.57;6.07;;;16.00;98.00;;;;;;4939552;29;20043;-82
2021/09/01 07:19:44;;;;;;;14.50;6.53;;;16.00;97.60;;;;;;4940145;28;20065;-82
2021/09/01 07:22:11;;;;;;;14.63;5.55;;;16.00;97.80;;;;;;4919531;28;20094;-82
2021/09/01 07:24:36;;;;;;;11.82;5.97;;;16.10;97.70;;;;;;4957868;28;21374;-82
2021/09/01 07:27:02;;;;;;;19.30;6.70;;;16.10;97.70;;;;;;4934323;29;20027;-82
2021/09/01 07:29:27;;;;;;;14.98;7.25;;;16.20;97.50;;;;;;4950953;28;20040;-82
2021/09/01 07:31:53;;;;;;;16.55;6.43;;;16.20;97.60;;;;;;4952912;28;20582;-82
2021/09/01 07:34:19;;;;;;;16.83;6.95;;;16.30;97.80;;;;;;4921202;29;20490;-83
2021/09/01 07:36:44;;;;;;;20.10;7.53;;;16.30;97.60;;;;;;4944272;29;20043;-83
2021/09/01 07:39:11;;;;;;;16.25;6.97;;;16.30;97.80;;;;;;4957159;28;20050;-83
2021/09/01 07:41:37;;;;;;;18.20;6.78;;;16.40;97.80;;;;;;4941317;28;20478;-83
2021/09/01 07:44:04;;;;;;;25.05;8.98;;;16.40;97.70;;;;;;4937834;28;20550;-82
2021/09/01 07:46:30;;;;;;;18.27;9.13;;;16.50;97.60;;;;;;4944308;28;20039;-83
2021/09/01 07:49:00;;;;;;;26.45;10.45;;;16.50;97.60;;;;;;4953166;28;20035;-84
2021/09/01 07:51:26;;;;;;;15.27;7.50;;;16.50;97.70;;;;;;4939134;28;20039;-82
2021/09/01 07:53:51;;;;;;;20.45;9.10;;;16.50;97.70;;;;;;4951488;28;20058;-83
2021/09/01 07:56:17;;;;;;;17.88;8.15;;;16.60;97.80;;;;;;4920385;29;20066;-82
2021/09/01 07:58:42;;;;;;;17.73;7.63;;;16.60;97.60;;;;;;4948645;28;20024;-82
2021/09/01 08:01:08;;;;;;;19.98;7.07;;;16.60;97.60;;;;;;4938715;28;20039;-82
2021/09/01 08:03:33;;;;;;;17.75;7.93;;;16.60;97.60;;;;;;4952010;28;20042;-83
2021/09/01 08:06:00;;;;;;;16.17;8.45;;;16.70;97.60;;;;;;4948780;28;20046;-82
2021/09/01 08:08:25;;;;;;;13.18;6.72;;;16.70;97.10;;;;;;4948885;28;20035;-83
2021/09/01 08:10:51;;;;;;;24.17;8.10;;;16.80;97.40;;;;;;4949149;28;20538;-82
2021/09/01 08:13:17;;;;;;;19.10;7.47;;;16.90;97.60;;;;;;4920041;29;20043;-82
2021/09/01 08:15:52;;;;;;;20.20;6.97;;;16.90;97.30;;;;;;4958584;28;20105;-82
2021/09/01 08:18:17;;;;;;;13.55;6.80;;;17.00;97.50;;;;;;4951574;28;20118;-82
2021/09/01 08:20:43;;;;;;;15.05;5.82;;;17.00;97.40;;;;;;4940853;28;20090;-82
2021/09/01 08:23:09;;;;;;;19.40;6.00;;;17.10;97.40;;;;;;4932029;28;20396;-82
2021/09/01 08:25:34;;;;;;;13.35;5.43;;;17.10;97.30;;;;;;4928887;28;20044;-83
2021/09/01 08:28:00;;;;;;;13.35;6.55;;;17.20;97.40;;;;;;4933701;28;20024;-83
2021/09/01 08:30:26;;;;;;;14.85;5.63;;;17.30;97.40;;;;;;4919187;28;20086;-82
2021/09/01 08:32:51;;;;;;;12.80;5.70;;;17.30;97.30;;;;;;4950142;28;20028;-83
2021/09/01 08:35:17;;;;;;;9.98;5.00;;;17.40;97.20;;;;;;4924619;29;20051;-83
2021/09/01 08:37:48;;;;;;;13.75;5.70;;;17.40;97.20;;;;;;4933692;28;20045;-83
2021/09/01 08:40:14;;;;;;;9.40;3.72;;;17.50;97.10;;;;;;4948632;28;20039;-82
2021/09/01 08:42:40;;;;;;;9.35;4.05;;;17.50;97.10;;;;;;4935993;28;20126;-83
2021/09/01 08:45:06;;;;;;;9.10;4.32;;;17.60;96.70;;;;;;4937740;28;20080;-82
2021/09/01 08:47:32;;;;;;;8.63;4.05;;;17.60;97.00;;;;;;4951990;28;20106;-83
2021/09/01 08:49:57;;;;;;;6.72;3.33;;;17.70;97.00;;;;;;4931056;28;20035;-82
2021/09/01 08:52:23;;;;;;;9.52;3.88;;;17.70;96.90;;;;;;4934699;28;20043;-82
2021/09/01 08:54:49;;;;;;;11.55;3.80;;;17.80;96.90;;;;;;4951405;28;20568;-82
2021/09/01 08:57:14;;;;;;;6.95;3.22;;;17.80;96.70;;;;;;4919266;29;20051;-82
2021/09/01 08:59:40;;;;;;;10.45;4.07;;;17.80;96.50;;;;;;4950548;28;20034;-83
2021/09/01 09:02:05;;;;;;;9.00;4.03;;;17.90;96.60;;;;;;4933221;28;20538;-82
2021/09/01 09:04:38;;;;;;;11.00;4.32;;;17.90;96.60;;;;;;4944514;28;20070;-83
2021/09/01 09:07:04;;;;;;;7.72;4.57;;;18.00;96.70;;;;;;4935662;28;20391;-82
2021/09/01 09:09:34;;;;;;;11.35;4.85;;;18.00;96.70;;;;;;4950396;28;20043;-84
2021/09/01 09:12:00;;;;;;;15.50;4.75;;;18.10;96.50;;;;;;4952750;28;20031;-83
2021/09/01 09:14:28;;;;;;;8.90;4.60;;;18.20;96.50;;;;;;4933853;28;20466;-82
2021/09/01 09:17:05;;;;;;;16.33;5.32;;;18.20;96.00;;;;;;4950234;28;20058;-83
2021/09/01 09:19:52;;;;;;;18.05;5.25;;;18.20;96.10;;;;;;4962002;28;20577;-83
2021/09/01 09:22:28;;;;;;;15.05;6.43;;;18.20;96.20;;;;;;4934004;29;20047;-83
2021/09/01 09:25:30;;;;;;;15.23;7.03;;;18.30;96.20;;;;;;4948111;28;20059;-82
2021/09/01 09:27:58;;;;;;;17.73;8.48;;;18.40;96.00;;;;;;4950080;28;20027;-83
2021/09/01 09:30:44;;;;;;;17.73;7.70;;;18.40;96.10;;;;;;4919936;28;20442;-82
2021/09/01 09:33:18;;;;;;;15.38;6.63;;;18.40;96.10;;;;;;4965501;28;20509;-82
2021/09/01 09:36:03;;;;;;;12.95;5.97;;;18.40;95.60;;;;;;4956767;28;20144;-82
2021/09/01 09:38:43;;;;;;;11.68;5.28;;;18.40;95.80;;;;;;4933445;28;20027;-83
2021/09/01 09:41:22;;;;;;;11.05;5.63;;;18.40;95.60;;;;;;4945548;28;20028;-82
2021/09/01 09:43:58;;;;;;;12.32;5.20;;;18.40;95.70;;;;;;4962987;28;20027;-84
2021/09/01 09:46:24;;;;;;;11.32;4.55;;;18.40;95.50;;;;;;4938927;28;20082;-82
2021/09/01 09:48:50;;;;;;;8.95;4.22;;;18.30;95.50;;;;;;4934055;29;20443;-83
2021/09/01 09:51:38;;;;;;;10.32;4.35;;;18.40;95.60;;;;;;4945185;28;20114;-82
2021/09/01 09:54:15;;;;;;;13.02;4.40;;;18.40;95.40;;;;;;4929719;28;20065;-82
2021/09/01 09:56:42;;;;;;;16.75;4.88;;;18.40;95.40;;;;;;4935908;28;20039;-83
2021/09/01 09:59:07;;;;;;;14.48;5.03;;;18.40;95.50;;;;;;4917889;28;20027;-83
2021/09/01 10:01:34;;;;;;;18.65;4.95;;;18.50;95.40;;;;;;4951978;28;20447;-82
2021/09/01 10:04:00;;;;;;;9.02;4.22;;;18.50;95.40;;;;;;4929650;28;20488;-83
2021/09/01 10:06:31;;;;;;;11.25;4.95;;;18.50;95.30;;;;;;4948949;28;20031;-82
2021/09/01 10:08:57;;;;;;;13.45;5.35;;;18.60;95.20;;;;;;4934788;28;20562;-82
2021/09/01 10:11:23;;;;;;;10.00;5.20;;;18.70;95.10;;;;;;4954249;28;20032;-83
2021/09/01 10:13:51;;;;;;;11.18;4.50;;;18.70;95.20;;;;;;4964583;28;20031;-83
2021/09/01 10:16:33;;;;;;;13.32;5.18;;;18.70;95.10;;;;;;4915841;29;20050;-83
2021/09/01 10:19:10;;;;;;;9.82;4.85;;;18.80;95.00;;;;;;4944552;28;20035;-83
2021/09/01 10:21:41;;;;;;;8.10;4.78;;;18.90;95.10;;;;;;4932980;28;20035;-83
2021/09/01 10:24:17;;;;;;;14.57;5.60;;;19.00;95.10;;;;;;4948862;28;20059;-83
2021/09/01 10:27:25;;;;;;;8.95;4.57;;;19.10;95.20;;;;;;4933370;28;20039;-83
2021/09/01 10:30:06;;;;;;;11.70;4.68;;;19.20;95.00;;;;;;4919936;28;20032;-83
2021/09/01 10:32:42;;;;;;;11.82;4.80;;;19.30;94.90;;;;;;4944707;28;20887;-83
2021/09/01 10:35:15;;;;;;;9.25;4.78;;;19.50;95.00;;;;;;4948901;28;20381;-82
2021/09/01 10:37:46;;;;;;;8.90;3.60;;;19.60;95.00;;;;;;4945884;29;20040;-82
2021/09/01 10:40:21;;;;;;;11.95;4.65;;;19.70;94.90;;;;;;4946680;28;20035;-82
2021/09/01 10:42:51;;;;;;;13.13;5.00;;;19.80;94.90;;;;;;4951837;28;20196;-83
2021/09/01 10:45:17;;;;;;;15.95;4.95;;;20.10;94.60;;;;;;4915763;28;21116;-83
2021/09/01 10:47:52;;;;;;;15.73;4.88;;;20.10;94.40;;;;;;4933238;28;20530;-83
2021/09/01 10:50:19;;;;;;;10.07;4.65;;;20.30;94.40;;;;;;4947595;28;20031;-83
2021/09/01 10:53:25;;;;;;;9.80;4.63;;;20.50;94.00;;;;;;4949622;28;20126;-83
2021/09/01 10:56:11;;;;;;;10.60;4.70;;;20.60;93.70;;;;;;4915896;29;20039;-82
2021/09/01 10:58:43;;;;;;;11.18;5.38;;;20.60;93.60;;;;;;4954489;28;20411;-83
2021/09/01 11:01:16;;;;;;;8.07;5.10;;;20.70;93.30;;;;;;4932366;28;20027;-84
2021/09/01 11:03:59;;;;;;;9.23;5.10;;;20.80;93.40;;;;;;4923639;28;20024;-83
2021/09/01 11:06:26;;;;;;;8.70;4.85;;;20.80;93.10;;;;;;4937578;29;20126;-84
2021/09/01 11:09:13;;;;;;;10.52;5.05;;;20.90;92.80;;;;;;4931836;28;20557;-83
2021/09/01 11:11:45;;;;;;;12.13;4.95;;;20.90;92.80;;;;;;4950693;28;20042;-83
2021/09/01 11:14:13;;;;;;;14.38;5.13;;;20.90;92.60;;;;;;4931967;28;20479;-83
2021/09/01 11:16:39;;;;;;;9.32;5.10;;;20.90;92.50;;;;;;4932889;28;20043;-83
2021/09/01 11:19:12;;;;;;;11.50;5.40;;;20.80;92.50;;;;;;4915761;28;20547;-82
2021/09/01 11:21:43;;;;;;;12.38;5.32;;;20.90;92.50;;;;;;4945862;28;20118;-84
2021/09/01 11:24:10;;;;;;;9.73;5.22;;;20.90;92.20;;;;;;4931001;28;20059;-84
2021/09/01 11:26:35;;;;;;;11.23;5.75;;;21.00;92.40;;;;;;4934418;28;20186;-83
2021/09/01 11:29:04;;;;;;;9.32;6.72;;;21.00;92.40;;;;;;4924168;28;20122;-83
2021/09/01 11:31:30;;;;;;;11.40;6.32;;;21.00;92.30;;;;;;4946180;28;20035;-83
2021/09/01 11:33:56;;;;;;;10.90;5.95;;;21.00;92.00;;;;;;4948072;28;20396;-84
2021/09/01 11:36:29;;;;;;;11.45;6.60;;;21.00;92.00;;;;;;4927725;29;20043;-83
2021/09/01 11:38:57;;;;;;;11.02;6.22;;;21.10;92.10;;;;;;4933728;29;20035;-83
2021/09/01 11:41:23;;;;;;;10.82;5.40;;;21.10;91.90;;;;;;4937186;28;20049;-84
2021/09/01 11:44:05;;;;;;;10.57;5.68;;;21.00;91.90;;;;;;4939170;28;20088;-85
2021/09/01 11:46:36;;;;;;;9.50;6.25;;;21.10;91.80;;;;;;4934341;28;20039;-83
2021/09/01 11:49:12;;;;;;;9.88;7.18;;;21.10;91.70;;;;;;4935428;28;20454;-82
2021/09/01 11:51:39;;;;;;;12.32;7.43;;;21.20;91.40;;;;;;4941134;28;20495;-83
2021/09/01 11:54:05;;;;;;;9.10;7.25;;;21.20;91.20;;;;;;4930112;29;20074;-83
2021/09/01 11:56:31;;;;;;;12.15;6.90;;;21.30;91.30;;;;;;4918761;28;20051;-82
2021/09/01 11:59:03;;;;;;;11.48;6.65;;;21.30;91.30;;;;;;4968054;28;20039;-82
2021/09/01 12:01:30;;;;;;;10.82;7.07;;;21.40;91.30;;;;;;4968185;28;20040;-83
2021/09/01 12:03:56;;;;;;;11.85;7.00;;;21.40;91.40;;;;;;4952107;28;20027;-83
2021/09/01 12:06:32;;;;;;;12.00;6.93;;;21.50;90.80;;;;;;4922728;28;20035;-82
2021/09/01 12:08:57;;;;;;;12.20;7.13;;;21.40;90.60;;;;;;4956490;28;20047;-82
2021/09/01 12:11:37;;;;;;;13.75;6.88;;;21.40;91.10;;;;;;4949476;28;20518;-83
2021/09/01 12:14:06;;;;;;;12.10;6.90;;;21.50;91.10;;;;;;4924182;28;20035;-83
2021/09/01 12:16:32;;;;;;;10.90;6.38;;;21.50;90.90;;;;;;4953060;28;20047;-83
2021/09/01 12:19:07;;;;;;;15.13;6.80;;;21.50;91.00;;;;;;4954727;28;20179;-83
2021/09/01 12:21:52;;;;;;;10.13;6.10;;;21.50;90.80;;;;;;4948321;28;20443;-83
2021/09/01 12:24:26;;;;;;;11.90;5.87;;;21.50;90.60;;;;;;4951542;28;20082;-83
2021/09/01 12:26:52;;;;;;;17.45;7.72;;;21.50;90.70;;;;;;4953707;28;20263;-83
2021/09/01 12:29:31;;;;;;;16.10;7.82;;;21.40;90.60;;;;;;4933613;28;20430;-83
2021/09/01 12:31:57;;;;;;;13.48;7.18;;;21.40;90.70;;;;;;4949683;28;20032;-83
2021/09/01 12:34:51;;;;;;;12.95;7.28;;;21.40;90.80;;;;;;4947448;28;20032;-84
2021/09/01 12:37:25;;;;;;;14.65;8.35;;;21.30;90.70;;;;;;4948807;28;20098;-83
2021/09/01 12:39:55;;;;;;;9.75;6.93;;;21.20;90.70;;;;;;4949627;28;20046;-82
2021/09/01 12:42:39;;;;;;;12.48;5.90;;;21.10;91.10;;;;;;4937096;29;20051;-83
2021/09/01 12:45:11;;;;;;;12.05;5.63;;;21.00;91.00;;;;;;4932582;28;20024;-83